createdAt,value
2022-12-03T00:01:42.191Z,10.57
2022-12-03T00:04:32.796Z,12.23
2022-12-03T00:07:22.027Z,9.90
2022-12-03T00:10:11.637Z,12.17
2022-12-03T00:13:00.961Z,11.80
2022-12-03T00:15:50.607Z,9.70
2022-12-03T00:18:40.092Z,10.93
2022-12-03T00:21:30.858Z,10.60
2022-12-03T00:24:20.335Z,9.20
2022-12-03T00:27:10.214Z,11.27
2022-12-03T00:29:59.415Z,13.80
2022-12-03T00:32:48.125Z,12.97
2022-12-03T00:35:37.476Z,9.87
2022-12-03T00:38:28.070Z,9.27
2022-12-03T00:41:17.298Z,9.90
2022-12-03T00:44:06.948Z,8.40
2022-12-03T00:46:56.736Z,12.17
2022-12-03T00:49:47.036Z,10.10
2022-12-03T00:52:35.651Z,13.47
2022-12-03T00:55:26.793Z,11.80
2022-12-03T00:58:16.367Z,10.50
2022-12-03T01:01:06.142Z,9.77
2022-12-03T01:03:55.106Z,8.03
2022-12-03T01:06:44.371Z,9.83
2022-12-03T01:09:34.015Z,12.00
2022-12-03T01:12:24.836Z,11.67
2022-12-03T01:15:14.281Z,8.47
2022-12-03T01:18:05.422Z,12.73
2022-12-03T01:20:56.145Z,10.53
2022-12-03T01:23:46.026Z,9.43
2022-12-03T01:26:34.885Z,8.83
2022-12-03T01:29:25.040Z,9.97
2022-12-03T01:32:19.713Z,10.47
2022-12-03T01:35:09.523Z,10.60
2022-12-03T01:37:58.391Z,11.87
2022-12-03T01:40:49.361Z,10.17
2022-12-03T01:43:39.183Z,10.80
2022-12-03T01:46:42.227Z,10.33
2022-12-03T01:49:33.362Z,8.80
2022-12-03T01:52:26.722Z,10.60
2022-12-03T01:55:19.009Z,10.13
2022-12-03T01:58:08.407Z,9.93
2022-12-03T02:00:59.396Z,12.03
2022-12-03T02:03:49.926Z,10.20
2022-12-03T02:06:39.599Z,9.43
2022-12-03T02:09:28.205Z,10.47
2022-12-03T02:12:21.196Z,9.43
2022-12-03T02:15:11.814Z,10.93
2022-12-03T02:18:00.992Z,10.70
2022-12-03T02:20:59.018Z,10.27
2022-12-03T02:23:59.188Z,11.07
2022-12-03T02:26:50.229Z,10.73
2022-12-03T02:29:39.036Z,8.17
2022-12-03T02:32:28.416Z,9.70
2022-12-03T02:35:18.734Z,12.57
2022-12-03T02:38:13.025Z,9.87
2022-12-03T02:41:06.427Z,10.00
2022-12-03T02:43:56.055Z,11.17
2022-12-03T02:46:45.830Z,9.37
2022-12-03T02:49:35.267Z,7.83
2022-12-03T02:52:25.343Z,10.67
2022-12-03T02:55:15.460Z,9.43
2022-12-03T02:58:05.107Z,8.03
2022-12-03T03:00:56.247Z,9.23
2022-12-03T03:03:47.447Z,8.87
2022-12-03T03:06:36.776Z,10.60
2022-12-03T03:09:26.043Z,8.93
2022-12-03T03:12:15.569Z,9.67
2022-12-03T03:15:06.156Z,9.07
2022-12-03T03:17:56.751Z,9.73
2022-12-03T03:20:47.109Z,9.03
2022-12-03T03:23:36.130Z,11.13
2022-12-03T03:26:26.026Z,10.13
2022-12-03T03:29:15.666Z,9.70
2022-12-03T03:32:06.163Z,9.67
2022-12-03T03:34:57.439Z,9.93
2022-12-03T03:37:46.951Z,9.70
2022-12-03T03:40:36.947Z,9.83
2022-12-03T03:43:27.157Z,10.93
2022-12-03T03:46:17.194Z,7.93
2022-12-03T03:49:07.342Z,9.87
2022-12-03T03:51:57.936Z,10.50
2022-12-03T03:54:47.132Z,10.27
2022-12-03T03:57:36.960Z,9.43
2022-12-03T04:00:26.747Z,9.30
2022-12-03T04:03:16.132Z,9.63
2022-12-03T04:06:05.483Z,11.13
2022-12-03T04:08:55.946Z,12.43
2022-12-03T04:12:02.534Z,12.07
2022-12-03T04:14:52.380Z,10.43
2022-12-03T04:17:41.788Z,15.30
2022-12-03T04:20:31.222Z,10.27
2022-12-03T04:23:19.120Z,12.30
2022-12-03T04:26:26.992Z,9.43
2022-12-03T04:29:15.971Z,8.90
2022-12-03T04:32:22.789Z,12.30
2022-12-03T04:35:29.609Z,9.00
2022-12-03T04:38:19.232Z,9.57
2022-12-03T04:41:10.107Z,10.07
2022-12-03T04:44:16.216Z,9.60
2022-12-03T04:47:08.451Z,10.00
2022-12-03T04:49:57.428Z,9.77
2022-12-03T04:52:46.530Z,9.47
2022-12-03T04:55:35.337Z,8.87
2022-12-03T04:58:26.108Z,9.40
2022-12-03T05:01:15.063Z,9.37
2022-12-03T05:04:04.806Z,10.73
2022-12-03T05:06:53.934Z,10.63
2022-12-03T05:09:43.782Z,10.47
2022-12-03T05:12:33.150Z,10.43
2022-12-03T05:15:23.746Z,10.80
2022-12-03T05:18:12.548Z,9.07
2022-12-03T05:21:01.464Z,10.73
2022-12-03T05:23:51.094Z,10.50
2022-12-03T05:26:40.189Z,9.20
2022-12-03T05:29:29.342Z,9.67
2022-12-03T05:32:19.781Z,10.77
2022-12-03T05:35:09.533Z,12.20
2022-12-03T05:37:58.731Z,11.20
2022-12-03T05:40:47.657Z,9.60
2022-12-03T05:43:35.540Z,11.07
2022-12-03T05:46:24.891Z,10.50
2022-12-03T05:49:15.454Z,14.23
2022-12-03T05:52:04.755Z,9.47
2022-12-03T05:54:54.387Z,11.23
2022-12-03T05:57:43.757Z,10.00
2022-12-03T06:00:42.507Z,11.90
2022-12-03T06:03:32.501Z,12.13
2022-12-03T06:06:23.460Z,13.20
2022-12-03T06:09:12.454Z,11.80
2022-12-03T06:12:01.457Z,10.57
2022-12-03T06:14:50.926Z,11.50
2022-12-03T06:17:40.423Z,10.77
2022-12-03T06:20:29.551Z,12.20
2022-12-03T06:23:19.967Z,12.20
2022-12-03T06:26:09.329Z,13.03
2022-12-03T06:28:58.821Z,12.00
2022-12-03T06:31:47.896Z,12.90
2022-12-03T06:34:36.841Z,12.80
2022-12-03T06:37:25.383Z,18.47
2022-12-03T06:40:17.213Z,14.90
2022-12-03T06:43:06.822Z,15.60
2022-12-03T06:45:56.308Z,13.27
2022-12-03T06:48:45.739Z,13.33
2022-12-03T06:51:34.595Z,14.50
2022-12-03T06:54:24.196Z,12.87
2022-12-03T06:57:15.328Z,17.15
2022-12-03T07:00:04.093Z,20.60
2022-12-03T07:02:53.665Z,16.43
2022-12-03T07:05:42.614Z,15.90
2022-12-03T07:08:31.735Z,14.57
2022-12-03T07:11:32.890Z,17.60
2022-12-03T07:14:23.610Z,15.37
2022-12-03T07:17:13.089Z,13.77
2022-12-03T07:20:02.376Z,12.90
2022-12-03T07:22:51.671Z,12.90
2022-12-03T07:25:40.851Z,13.63
2022-12-03T07:28:29.690Z,16.77
2022-12-03T07:31:20.653Z,12.87
2022-12-03T07:34:10.192Z,15.70
2022-12-03T07:36:59.304Z,18.67
2022-12-03T07:39:48.425Z,16.90
2022-12-03T07:42:37.445Z,15.37
2022-12-03T07:45:27.442Z,14.63
2022-12-03T07:48:17.945Z,16.67
2022-12-03T07:51:08.836Z,17.23
2022-12-03T07:53:59.715Z,15.60
2022-12-03T07:56:50.059Z,18.37
2022-12-03T07:59:38.851Z,15.67
2022-12-03T08:02:27.786Z,13.93
2022-12-03T08:05:18.789Z,13.73
2022-12-03T08:08:07.691Z,13.53
2022-12-03T08:10:56.415Z,15.07
2022-12-03T08:13:46.455Z,13.87
2022-12-03T08:16:40.768Z,14.23
2022-12-03T08:19:30.264Z,12.93
2022-12-03T08:22:22.668Z,15.47
2022-12-03T08:25:18.341Z,14.63
2022-12-03T08:28:15.088Z,13.63
2022-12-03T08:31:12.261Z,15.47
2022-12-03T08:34:16.575Z,14.20
2022-12-03T08:37:16.116Z,13.17
2022-12-03T08:40:22.163Z,13.67
2022-12-03T08:43:17.998Z,14.43
2022-12-03T08:46:06.922Z,15.27
2022-12-03T08:48:55.947Z,15.23
2022-12-03T08:51:46.091Z,15.70
2022-12-03T08:54:35.410Z,14.47
2022-12-03T08:57:28.911Z,13.83
2022-12-03T09:00:23.012Z,13.33
2022-12-03T09:03:18.081Z,15.20
2022-12-03T09:06:07.830Z,17.37
2022-12-03T09:08:57.203Z,14.47
2022-12-03T09:11:47.006Z,14.73
2022-12-03T09:14:38.181Z,22.43
2022-12-03T09:17:28.116Z,17.57
2022-12-03T09:20:17.523Z,15.00
2022-12-03T09:23:06.853Z,13.40
2022-12-03T09:25:56.124Z,12.90
2022-12-03T09:28:47.021Z,14.23
2022-12-03T09:31:37.267Z,15.33
2022-12-03T09:34:26.788Z,13.57
2022-12-03T09:37:16.728Z,13.97
2022-12-03T09:40:06.973Z,13.20
2022-12-03T09:42:58.737Z,14.20
2022-12-03T09:45:48.059Z,13.77
2022-12-03T09:48:39.557Z,12.90
2022-12-03T09:51:32.999Z,12.43
2022-12-03T09:54:25.771Z,12.63
2022-12-03T09:57:14.855Z,13.10
2022-12-03T10:00:04.494Z,12.70
2022-12-03T10:02:56.644Z,12.10
2022-12-03T10:05:48.330Z,13.33
2022-12-03T10:08:37.850Z,10.50
2022-12-03T10:11:28.176Z,13.00
2022-12-03T10:14:19.630Z,16.47
2022-12-03T10:17:08.963Z,13.97
2022-12-03T10:19:59.006Z,17.27
2022-12-03T10:22:49.654Z,15.97
2022-12-03T10:25:53.006Z,12.70
2022-12-03T10:28:44.154Z,10.03
2022-12-03T10:31:37.935Z,13.43
2022-12-03T10:34:30.798Z,10.93
2022-12-03T10:37:21.904Z,11.90
2022-12-03T10:40:15.069Z,11.77
2022-12-03T10:43:21.642Z,10.27
2022-12-03T10:46:17.355Z,10.93
2022-12-03T10:49:10.841Z,11.13
2022-12-03T10:52:00.001Z,10.93
2022-12-03T10:54:48.735Z,12.93
2022-12-03T10:57:42.488Z,10.83
2022-12-03T11:00:34.145Z,12.70
2022-12-03T11:03:24.460Z,12.73
2022-12-03T11:06:16.546Z,9.90
2022-12-03T11:09:09.025Z,13.57
2022-12-03T11:12:04.029Z,11.43
2022-12-03T11:15:08.375Z,11.93
2022-12-03T11:17:56.910Z,10.90
2022-12-03T11:21:13.239Z,11.10
2022-12-03T11:24:19.953Z,8.17
2022-12-03T11:27:22.253Z,8.33
2022-12-03T11:30:12.537Z,10.73
2022-12-03T11:33:02.839Z,8.37
2022-12-03T11:36:16.841Z,9.87
2022-12-03T11:39:06.306Z,9.47
2022-12-03T11:42:28.650Z,10.27
2022-12-03T11:45:24.244Z,8.30
2022-12-03T11:48:15.153Z,11.47
2022-12-03T11:51:04.247Z,9.83
2022-12-03T11:53:55.774Z,10.23
2022-12-03T11:56:46.632Z,10.53
2022-12-03T11:59:36.145Z,10.67
2022-12-03T12:02:27.567Z,8.60
2022-12-03T12:05:21.976Z,9.20
2022-12-03T12:08:21.809Z,8.47
2022-12-03T12:11:20.396Z,10.00
2022-12-03T12:14:10.590Z,11.03
2022-12-03T12:17:03.286Z,9.40
2022-12-03T12:20:11.484Z,9.63
2022-12-03T12:23:24.200Z,12.90
2022-12-03T12:26:14.011Z,10.53
2022-12-03T12:29:03.226Z,10.03
2022-12-03T12:31:54.228Z,11.37
2022-12-03T12:34:44.779Z,8.93
2022-12-03T12:37:38.058Z,9.97
2022-12-03T12:40:29.613Z,10.07
2022-12-03T12:43:25.680Z,11.57
2022-12-03T12:49:27.271Z,10.27
2022-12-03T12:52:17.191Z,10.07
2022-12-03T12:55:12.521Z,8.40
2022-12-03T12:58:04.351Z,9.03
2022-12-03T13:00:55.454Z,9.83
2022-12-03T13:03:44.180Z,11.10
2022-12-03T13:06:34.295Z,12.47
2022-12-03T13:09:25.726Z,14.37
2022-12-03T13:12:23.179Z,12.17
2022-12-03T13:15:35.975Z,12.27
2022-12-03T13:18:35.110Z,9.93
2022-12-03T13:21:26.459Z,11.53
2022-12-03T13:24:37.389Z,11.80
2022-12-03T13:27:30.737Z,12.17
2022-12-03T13:30:22.041Z,11.57
2022-12-03T13:33:20.271Z,11.77
2022-12-03T13:36:14.566Z,11.60
2022-12-03T13:39:10.325Z,14.37
2022-12-03T13:42:17.965Z,15.10
2022-12-03T13:45:36.165Z,11.87
2022-12-03T13:48:29.141Z,12.23
2022-12-03T13:51:26.019Z,14.03
2022-12-03T13:54:21.168Z,12.83
2022-12-03T13:57:09.725Z,14.63
2022-12-03T13:59:58.354Z,14.73
2022-12-03T14:02:49.088Z,18.30
2022-12-03T14:05:38.860Z,15.80
2022-12-03T14:08:27.520Z,15.20
2022-12-03T14:11:29.895Z,11.83
2022-12-03T14:14:19.134Z,13.60
2022-12-03T14:17:09.835Z,13.63
2022-12-03T14:20:01.469Z,13.43
2022-12-03T14:22:53.960Z,17.13
2022-12-03T14:25:47.335Z,14.53
2022-12-03T14:28:37.926Z,15.63
2022-12-03T14:31:27.088Z,14.50
2022-12-03T14:34:16.665Z,18.37
2022-12-03T14:37:07.755Z,18.27
2022-12-03T14:39:57.598Z,15.57
2022-12-03T14:42:47.473Z,18.20
2022-12-03T14:45:37.145Z,18.47
2022-12-03T14:48:27.684Z,17.77
2022-12-03T14:51:17.568Z,20.43
2022-12-03T14:54:07.859Z,19.03
2022-12-03T14:56:57.482Z,18.10
2022-12-03T14:59:47.532Z,18.03
2022-12-03T15:02:36.693Z,15.87
2022-12-03T15:05:28.786Z,16.83
2022-12-03T15:08:19.381Z,18.10
2022-12-03T15:11:09.655Z,20.40
2022-12-03T15:13:58.779Z,17.37
2022-12-03T15:16:47.585Z,17.07
2022-12-03T15:19:37.221Z,17.70
2022-12-03T15:22:26.392Z,21.70
2022-12-03T15:25:39.449Z,20.03
2022-12-03T15:28:30.249Z,23.47
2022-12-03T15:31:19.416Z,20.83
2022-12-03T15:34:08.531Z,19.37
2022-12-03T15:36:57.824Z,18.23
2022-12-03T15:39:48.841Z,20.67
2022-12-03T15:42:38.068Z,21.37
2022-12-03T15:45:28.553Z,18.47
2022-12-03T15:48:18.077Z,21.20
2022-12-03T15:51:07.864Z,21.27
2022-12-03T15:53:57.486Z,22.20
2022-12-03T15:56:46.654Z,25.63
2022-12-03T15:59:36.157Z,22.13
2022-12-03T16:02:27.316Z,24.57
2022-12-03T16:05:16.372Z,24.60
2022-12-03T16:08:05.991Z,24.97
2022-12-03T16:10:55.570Z,21.13
2022-12-03T16:13:44.897Z,23.83
2022-12-03T16:16:33.878Z,25.87
2022-12-03T16:19:24.871Z,25.40
2022-12-03T16:22:14.812Z,20.93
2022-12-03T16:25:05.263Z,23.83
2022-12-03T16:27:54.355Z,23.53
2022-12-03T16:30:44.123Z,26.33
2022-12-03T16:33:33.794Z,24.00
2022-12-03T16:36:24.938Z,24.90
2022-12-03T16:39:14.573Z,27.10
2022-12-03T16:42:07.910Z,24.43
2022-12-03T16:45:16.788Z,27.00
2022-12-03T16:48:06.889Z,24.07
2022-12-03T16:50:56.395Z,33.97
2022-12-03T16:53:47.439Z,29.87
2022-12-03T16:56:36.961Z,36.57
2022-12-03T16:59:25.955Z,32.67
2022-12-03T17:02:14.950Z,34.33
2022-12-03T17:05:04.998Z,28.93
2022-12-03T17:07:54.306Z,28.37
2022-12-03T17:10:45.160Z,30.98
2022-12-03T17:13:34.262Z,31.57
2022-12-03T17:16:23.135Z,27.10
2022-12-03T17:19:12.103Z,29.67
2022-12-03T17:22:01.675Z,27.13
2022-12-03T17:24:51.201Z,26.80
2022-12-03T17:27:45.393Z,28.77
2022-12-03T17:30:34.927Z,25.93
2022-12-03T17:33:24.482Z,24.73
2022-12-03T17:36:13.921Z,28.93
2022-12-03T17:39:03.424Z,22.53
2022-12-03T17:41:52.780Z,21.87
2022-12-03T17:44:43.406Z,24.57
2022-12-03T17:47:33.116Z,23.10
2022-12-03T17:50:22.061Z,22.67
2022-12-03T17:53:11.681Z,23.93
2022-12-03T17:56:01.248Z,19.77
2022-12-03T17:58:51.332Z,23.30
2022-12-03T18:01:43.345Z,21.63
2022-12-03T18:04:32.560Z,20.37
2022-12-03T18:07:22.136Z,18.77
2022-12-03T18:10:12.227Z,18.23
2022-12-03T18:13:02.111Z,23.17
2022-12-03T18:15:51.745Z,19.60
2022-12-03T18:18:42.551Z,20.10
2022-12-03T18:21:32.033Z,21.63
2022-12-03T18:24:21.835Z,21.97
2022-12-03T18:27:10.695Z,21.47
2022-12-03T18:29:59.539Z,26.60
2022-12-03T18:32:49.834Z,29.77
2022-12-03T18:35:40.526Z,27.77
2022-12-03T18:38:32.446Z,26.77
2022-12-03T18:41:21.931Z,27.93
2022-12-03T18:44:12.345Z,28.60
2022-12-03T18:47:02.647Z,27.63
2022-12-03T18:49:53.264Z,26.90
2022-12-03T18:52:44.025Z,29.67
2022-12-03T18:55:36.723Z,31.97
2022-12-03T18:58:25.864Z,29.47
2022-12-03T19:01:17.807Z,28.50
2022-12-03T19:04:06.633Z,27.90
2022-12-03T19:06:56.030Z,30.50
2022-12-03T19:09:46.605Z,31.60
2022-12-03T19:12:35.554Z,34.83
2022-12-03T19:15:24.362Z,29.90
2022-12-03T19:18:13.250Z,32.70
2022-12-03T19:21:02.241Z,34.83
2022-12-03T19:27:01.701Z,32.00
2022-12-03T19:29:51.173Z,29.33
2022-12-03T19:32:40.457Z,27.27
2022-12-03T19:35:29.531Z,24.48
2022-12-03T19:38:18.669Z,26.00
2022-12-03T19:41:10.724Z,26.90
2022-12-03T19:44:04.016Z,26.63
2022-12-03T19:46:55.431Z,25.63
2022-12-03T19:49:44.648Z,25.57
2022-12-03T19:52:36.975Z,29.37
2022-12-03T19:55:25.771Z,26.00
2022-12-03T19:58:15.275Z,28.30
2022-12-03T20:01:10.428Z,28.37
2022-12-03T20:04:01.478Z,28.00
2022-12-03T20:06:50.944Z,30.00
2022-12-03T20:09:40.220Z,31.50
2022-12-03T20:12:29.496Z,29.63
2022-12-03T20:15:18.713Z,28.10
2022-12-03T20:18:09.535Z,29.70
2022-12-03T20:20:59.004Z,29.53
2022-12-03T20:23:48.297Z,31.17
2022-12-03T20:26:38.033Z,28.60
2022-12-03T20:29:27.721Z,25.97
2022-12-03T20:32:16.769Z,25.40
2022-12-03T20:35:07.566Z,26.67
2022-12-03T20:37:56.568Z,24.47
2022-12-03T20:40:46.076Z,28.47
2022-12-03T20:43:35.748Z,27.07
2022-12-03T20:46:26.880Z,26.13
2022-12-03T20:49:16.405Z,22.87
2022-12-03T20:52:06.785Z,24.03
2022-12-03T20:54:55.800Z,24.33
2022-12-03T20:57:45.005Z,22.80
2022-12-03T21:00:34.858Z,23.60
2022-12-03T21:03:23.883Z,25.03
2022-12-03T21:06:12.895Z,22.03
2022-12-03T21:09:04.604Z,23.03
2022-12-03T21:11:53.719Z,22.10
2022-12-03T21:14:42.894Z,24.00
2022-12-03T21:17:32.315Z,22.23
2022-12-03T21:20:21.507Z,23.13
2022-12-03T21:23:11.102Z,22.30
2022-12-03T21:26:06.381Z,21.33
2022-12-03T21:28:56.164Z,20.43
2022-12-03T21:31:45.564Z,19.90
2022-12-03T21:34:36.547Z,23.00
2022-12-03T21:37:26.104Z,21.13
2022-12-03T21:40:15.592Z,21.53
2022-12-03T21:43:06.311Z,21.77
2022-12-03T21:45:55.837Z,23.13
2022-12-03T21:48:44.798Z,22.10
2022-12-03T21:51:34.054Z,20.40
2022-12-03T21:54:23.928Z,20.87
2022-12-03T21:57:13.250Z,21.77
2022-12-03T22:00:03.577Z,20.30
2022-12-03T22:02:53.095Z,21.93
2022-12-03T22:05:42.549Z,19.37
2022-12-03T22:08:32.095Z,21.37
2022-12-03T22:11:24.236Z,21.60
2022-12-03T22:14:13.765Z,19.83
2022-12-03T22:17:04.772Z,21.60
2022-12-03T22:19:53.831Z,22.07
2022-12-03T22:22:43.148Z,21.03
2022-12-03T22:25:32.225Z,20.63
2022-12-03T22:28:21.740Z,19.43
2022-12-03T22:31:11.912Z,19.10
2022-12-03T22:34:02.515Z,21.20
2022-12-03T22:36:52.125Z,21.27
2022-12-03T22:39:41.324Z,19.83
2022-12-03T22:42:30.790Z,19.40
2022-12-03T22:45:20.000Z,18.57
2022-12-03T22:48:09.959Z,18.70
2022-12-03T22:51:00.790Z,20.03
2022-12-03T22:53:50.652Z,19.37
2022-12-03T22:56:40.290Z,20.97
2022-12-03T22:59:29.803Z,21.00
2022-12-03T23:02:18.983Z,18.37
2022-12-03T23:05:09.589Z,20.67
2022-12-03T23:08:00.037Z,17.57
2022-12-03T23:10:50.769Z,19.10
2022-12-03T23:13:40.237Z,20.70
2022-12-03T23:16:31.256Z,19.10
2022-12-03T23:19:21.068Z,20.87
2022-12-03T23:22:10.430Z,25.50
2022-12-03T23:25:01.682Z,19.93
2022-12-03T23:27:51.069Z,21.50
2022-12-03T23:30:41.863Z,16.10
2022-12-03T23:33:35.260Z,17.47
2022-12-03T23:36:28.359Z,16.50
2022-12-03T23:39:17.196Z,16.80
2022-12-03T23:42:07.777Z,15.83
2022-12-03T23:44:57.175Z,19.37
2022-12-03T23:47:46.398Z,16.60
2022-12-03T23:50:36.160Z,16.27
2022-12-03T23:53:25.456Z,17.37
2022-12-03T23:56:16.579Z,13.60
2022-12-03T23:59:06.922Z,13.90
